Time;durP1;ratioP1;P1;durP2;ratioP2;P2;SDS_P1;SDS_P2;PMS_P1;PMS_P2;Temp;Humidity;BMP_temperature;BMP_pressure;BME280_temperature;BME280_humidity;BME280_pressure;Samples;Min_cycle;Max_cycle;Signal;HPM_P1;HPM_P2
2022/12/06 00:01:45;;;;;;;0.07;0.07;;;;;;;;;;4979035;28;20045;-71
2022/12/06 00:04:13;;;;;;;0.10;0.10;;;;;;;;;;4994106;28;20026;-71
2022/12/06 00:06:41;;;;;;;0.10;0.10;;;;;;;;;;5013289;28;20029;-71
2022/12/06 00:09:08;;;;;;;0.00;0.00;;;;;;;;;;5013282;28;20468;-71
2022/12/06 00:11:36;;;;;;;0.00;0.00;;;;;;;;;;5012967;28;20045;-71
2022/12/06 00:14:04;;;;;;;0.00;0.00;;;;;;;;;;4995848;28;20029;-71
2022/12/06 00:16:31;;;;;;;0.00;0.00;;;;;;;;;;4995426;28;20060;-71
2022/12/06 00:18:57;;;;;;;0.00;0.00;;;;;;;;;;4980053;28;20109;-71
2022/12/06 00:21:26;;;;;;;0.00;0.00;;;;;;;;;;5005413;28;20040;-72
2022/12/06 00:23:53;;;;;;;0.00;0.00;;;;;;;;;;5006712;28;20109;-70
2022/12/06 00:26:20;;;;;;;0.00;0.00;;;;;;;;;;5006939;28;20045;-70
2022/12/06 00:28:46;;;;;;;0.00;0.00;;;;;;;;;;4996760;28;20137;-71
2022/12/06 00:31:17;;;;;;;0.00;0.00;;;;;;;;;;4993471;28;20076;-71
2022/12/06 00:33:43;;;;;;;0.10;0.10;;;;;;;;;;5001259;28;20054;-71
2022/12/06 00:36:11;;;;;;;0.00;0.00;;;;;;;;;;4976000;28;20117;-70
2022/12/06 00:38:38;;;;;;;0.00;0.00;;;;;;;;;;4976199;28;20045;-72
2022/12/06 00:41:05;;;;;;;0.00;0.00;;;;;;;;;;4988490;28;20133;-72
2022/12/06 00:43:32;;;;;;;0.00;0.00;;;;;;;;;;5013128;28;20030;-71
2022/12/06 00:45:59;;;;;;;0.00;0.00;;;;;;;;;;4992430;28;20035;-72
2022/12/06 00:48:25;;;;;;;0.10;0.10;;;;;;;;;;4992179;28;20037;-72
2022/12/06 00:50:52;;;;;;;0.00;0.00;;;;;;;;;;4992239;28;20033;-71
2022/12/06 00:53:18;;;;;;;0.00;0.00;;;;;;;;;;4992023;28;20037;-72
2022/12/06 00:55:45;;;;;;;0.00;0.00;;;;;;;;;;4992971;28;20040;-71
2022/12/06 00:58:12;;;;;;;0.00;0.00;;;;;;;;;;5003374;28;20049;-71
2022/12/06 01:00:38;;;;;;;0.00;0.00;;;;;;;;;;4979719;28;20030;-71
2022/12/06 01:03:05;;;;;;;0.00;0.00;;;;;;;;;;5004315;28;20045;-71
2022/12/06 01:05:31;;;;;;;0.00;0.00;;;;;;;;;;5009222;28;20048;-71
2022/12/06 01:07:57;;;;;;;0.00;0.00;;;;;;;;;;4994944;28;20034;-71
2022/12/06 01:10:24;;;;;;;0.00;0.00;;;;;;;;;;5012154;28;20097;-71
2022/12/06 01:12:50;;;;;;;0.00;0.00;;;;;;;;;;5011381;28;20037;-71
2022/12/06 01:15:17;;;;;;;0.00;0.00;;;;;;;;;;4990934;28;20081;-71
2022/12/06 01:17:43;;;;;;;0.00;0.00;;;;;;;;;;4993652;28;20030;-72
2022/12/06 01:20:10;;;;;;;0.00;0.00;;;;;;;;;;5015593;28;20034;-71
2022/12/06 01:22:36;;;;;;;0.10;0.10;;;;;;;;;;5016439;28;20080;-70
2022/12/06 01:25:02;;;;;;;0.00;0.00;;;;;;;;;;4997731;28;20092;-71
2022/12/06 01:27:29;;;;;;;0.10;0.10;;;;;;;;;;4998645;28;20048;-71
2022/12/06 01:29:55;;;;;;;0.00;0.00;;;;;;;;;;4998584;28;20511;-70
2022/12/06 01:32:21;;;;;;;0.00;0.00;;;;;;;;;;4997985;28;20100;-70
2022/12/06 01:34:51;;;;;;;0.00;0.00;;;;;;;;;;5015961;28;20083;-71
2022/12/06 01:37:17;;;;;;;0.00;0.00;;;;;;;;;;5011103;28;20483;-72
2022/12/06 01:39:44;;;;;;;0.10;0.10;;;;;;;;;;4986939;28;20034;-72
2022/12/06 01:42:11;;;;;;;0.10;0.10;;;;;;;;;;5010467;28;20029;-71
2022/12/06 01:44:45;;;;;;;0.00;0.00;;;;;;;;;;5009251;28;20504;-71
2022/12/06 01:47:17;;;;;;;0.10;0.10;;;;;;;;;;5011693;28;20034;-73
2022/12/06 01:49:47;;;;;;;0.00;0.00;;;;;;;;;;5014106;28;20124;-71
2022/12/06 01:52:14;;;;;;;0.00;0.00;;;;;;;;;;4998574;28;20038;-71
2022/12/06 01:54:40;;;;;;;0.00;0.00;;;;;;;;;;5009986;28;20026;-71
2022/12/06 01:57:08;;;;;;;0.00;0.00;;;;;;;;;;4994243;28;20029;-71
2022/12/06 01:59:35;;;;;;;0.00;0.00;;;;;;;;;;5006940;28;20033;-71
2022/12/06 02:02:02;;;;;;;0.00;0.00;;;;;;;;;;4995822;28;20523;-72
2022/12/06 02:04:30;;;;;;;0.00;0.00;;;;;;;;;;5013868;28;20037;-71
2022/12/06 02:06:57;;;;;;;0.00;0.00;;;;;;;;;;5015317;28;20088;-71
2022/12/06 02:09:24;;;;;;;0.00;0.00;;;;;;;;;;5014851;28;20049;-71
2022/12/06 02:11:50;;;;;;;0.00;0.00;;;;;;;;;;5014850;28;20029;-72
2022/12/06 02:14:18;;;;;;;0.00;0.00;;;;;;;;;;4985378;28;20029;-72
2022/12/06 02:17:03;;;;;;;0.00;0.00;;;;;;;;;;4999731;28;20388;-71
2022/12/06 02:19:42;;;;;;;0.00;0.00;;;;;;;;;;5009090;28;20114;-73
2022/12/06 02:22:22;;;;;;;0.00;0.00;;;;;;;;;;4992419;28;20061;-71
2022/12/06 02:25:04;;;;;;;0.00;0.00;;;;;;;;;;5002690;28;20030;-71
2022/12/06 02:27:41;;;;;;;0.10;0.10;;;;;;;;;;5000935;28;20044;-70
2022/12/06 02:30:28;;;;;;;0.10;0.10;;;;;;;;;;4994316;28;20037;-71
2022/12/06 02:33:00;;;;;;;0.10;0.10;;;;;;;;;;4976743;28;20053;-71
2022/12/06 02:35:33;;;;;;;0.00;0.00;;;;;;;;;;5006622;28;20022;-71
2022/12/06 02:38:11;;;;;;;0.10;0.10;;;;;;;;;;4984355;28;20536;-70
2022/12/06 02:40:43;;;;;;;0.00;0.00;;;;;;;;;;4995021;28;20052;-72
2022/12/06 02:43:12;;;;;;;0.00;0.00;;;;;;;;;;4997525;28;20034;-70
2022/12/06 02:45:42;;;;;;;0.00;0.00;;;;;;;;;;5012104;28;20057;-71
2022/12/06 02:48:09;;;;;;;0.00;0.00;;;;;;;;;;4996808;28;20033;-71
2022/12/06 02:50:38;;;;;;;0.00;0.00;;;;;;;;;;5008365;28;20181;-72
2022/12/06 02:53:07;;;;;;;0.00;0.00;;;;;;;;;;4986789;28;20022;-71
2022/12/06 02:55:33;;;;;;;0.00;0.00;;;;;;;;;;5009747;28;20634;-73
2022/12/06 02:58:00;;;;;;;0.00;0.00;;;;;;;;;;5010665;28;20507;-71
2022/12/06 03:00:29;;;;;;;0.00;0.00;;;;;;;;;;4997356;28;20080;-72
2022/12/06 03:03:10;;;;;;;0.00;0.00;;;;;;;;;;4993798;28;20041;-73
2022/12/06 03:05:44;;;;;;;0.00;0.00;;;;;;;;;;5006382;28;20103;-71
2022/12/06 03:08:17;;;;;;;0.00;0.00;;;;;;;;;;5006434;28;20048;-72
2022/12/06 03:10:46;;;;;;;0.00;0.00;;;;;;;;;;5008849;28;20407;-70
2022/12/06 03:13:13;;;;;;;0.00;0.00;;;;;;;;;;4991015;28;20049;-70
2022/12/06 03:15:58;;;;;;;0.00;0.00;;;;;;;;;;4994351;28;20484;-71
2022/12/06 03:18:32;;;;;;;0.00;0.00;;;;;;;;;;4990228;28;20161;-70
2022/12/06 03:21:18;;;;;;;0.00;0.00;;;;;;;;;;5008154;28;20480;-72
2022/12/06 03:23:46;;;;;;;0.00;0.00;;;;;;;;;;5007686;28;20530;-71
2022/12/06 03:26:14;;;;;;;0.00;0.00;;;;;;;;;;4986763;28;20054;-70
2022/12/06 03:28:42;;;;;;;0.00;0.00;;;;;;;;;;5010674;28;20530;-71
2022/12/06 03:31:12;;;;;;;0.00;0.00;;;;;;;;;;5005309;28;20113;-71
2022/12/06 03:33:44;;;;;;;0.00;0.00;;;;;;;;;;4985291;28;20092;-74
2022/12/06 03:36:12;;;;;;;0.00;0.00;;;;;;;;;;4989845;28;20042;-71
2022/12/06 03:38:43;;;;;;;0.00;0.00;;;;;;;;;;4989711;28;20049;-73
2022/12/06 03:41:10;;;;;;;0.00;0.00;;;;;;;;;;4986681;28;20094;-71
2022/12/06 03:43:36;;;;;;;0.00;0.00;;;;;;;;;;4986449;28;20029;-72
2022/12/06 03:46:13;;;;;;;0.00;0.00;;;;;;;;;;4990265;28;20053;-71
2022/12/06 03:48:58;;;;;;;0.00;0.00;;;;;;;;;;4985227;28;20096;-71
2022/12/06 03:51:33;;;;;;;0.00;0.00;;;;;;;;;;4987706;28;20133;-72
2022/12/06 03:54:00;;;;;;;0.00;0.00;;;;;;;;;;4984421;28;20030;-72
2022/12/06 03:56:27;;;;;;;0.10;0.10;;;;;;;;;;4987364;28;20030;-72
2022/12/06 03:58:53;;;;;;;0.10;0.10;;;;;;;;;;4988976;28;20113;-72
2022/12/06 04:01:20;;;;;;;0.00;0.00;;;;;;;;;;4986525;28;20038;-72
2022/12/06 04:03:46;;;;;;;0.00;0.00;;;;;;;;;;4984159;28;20043;-77
2022/12/06 04:06:12;;;;;;;0.07;0.07;;;;;;;;;;4987304;28;20057;-71
2022/12/06 04:08:39;;;;;;;0.00;0.00;;;;;;;;;;4986215;28;20027;-75
2022/12/06 04:11:05;;;;;;;0.00;0.00;;;;;;;;;;4985341;28;20026;-73
2022/12/06 04:13:32;;;;;;;0.00;0.00;;;;;;;;;;4990173;28;20030;-76
2022/12/06 04:15:59;;;;;;;0.00;0.00;;;;;;;;;;4989922;28;20065;-74
2022/12/06 04:18:27;;;;;;;0.00;0.00;;;;;;;;;;4990083;28;20068;-74
2022/12/06 04:23:42;;;;;;;0.00;0.00;;;;;;;;;;4990798;28;20090;-75
2022/12/06 04:26:10;;;;;;;0.10;0.10;;;;;;;;;;4993198;28;20037;-74
2022/12/06 04:39:36;;;;;;;0.00;0.00;;;;;;;;;;5002544;28;20169;-76
2022/12/06 04:44:48;;;;;;;0.00;0.00;;;;;;;;;;5006031;28;20100;-74
2022/12/06 04:47:14;;;;;;;0.00;0.00;;;;;;;;;;5004691;28;20031;-73
2022/12/06 04:49:41;;;;;;;0.00;0.00;;;;;;;;;;4993062;28;20468;-73
2022/12/06 04:52:08;;;;;;;0.00;0.00;;;;;;;;;;4991899;28;20056;-72
2022/12/06 04:54:34;;;;;;;0.00;0.00;;;;;;;;;;4988934;28;20118;-72
2022/12/06 04:57:01;;;;;;;0.00;0.00;;;;;;;;;;4992407;28;20029;-72
2022/12/06 04:59:28;;;;;;;0.00;0.00;;;;;;;;;;5004320;28;20025;-73
2022/12/06 05:01:54;;;;;;;0.00;0.00;;;;;;;;;;5004311;28;20034;-73
2022/12/06 05:04:21;;;;;;;0.00;0.00;;;;;;;;;;4985601;28;20459;-73
2022/12/06 05:06:48;;;;;;;0.00;0.00;;;;;;;;;;4990176;28;20045;-73
2022/12/06 05:09:14;;;;;;;0.00;0.00;;;;;;;;;;5007512;28;20068;-74
2022/12/06 05:11:41;;;;;;;0.00;0.00;;;;;;;;;;4991021;28;20062;-74
2022/12/06 05:14:07;;;;;;;0.00;0.00;;;;;;;;;;5005688;28;20041;-74
2022/12/06 05:16:33;;;;;;;0.00;0.00;;;;;;;;;;5005823;28;20400;-71
2022/12/06 05:19:00;;;;;;;0.00;0.00;;;;;;;;;;5002819;28;20391;-73
2022/12/06 05:21:26;;;;;;;0.00;0.00;;;;;;;;;;5004318;28;20042;-73
2022/12/06 05:23:54;;;;;;;0.00;0.00;;;;;;;;;;5002945;28;20033;-74
2022/12/06 05:26:21;;;;;;;0.00;0.00;;;;;;;;;;4988196;28;20105;-75
2022/12/06 05:28:47;;;;;;;0.00;0.00;;;;;;;;;;4990557;28;20041;-76
2022/12/06 05:31:14;;;;;;;0.00;0.00;;;;;;;;;;4980037;28;20038;-76
2022/12/06 05:33:41;;;;;;;0.10;0.10;;;;;;;;;;4985229;28;20084;-73
2022/12/06 05:36:20;;;;;;;0.00;0.00;;;;;;;;;;4985848;28;20026;-73
2022/12/06 05:38:47;;;;;;;0.00;0.00;;;;;;;;;;4991959;28;20034;-73
2022/12/06 05:41:14;;;;;;;0.00;0.00;;;;;;;;;;4985907;28;20034;-74
2022/12/06 05:43:40;;;;;;;0.03;0.03;;;;;;;;;;4988566;28;20038;-74
2022/12/06 05:46:07;;;;;;;0.07;0.07;;;;;;;;;;4984767;28;20184;-74
2022/12/06 05:48:33;;;;;;;0.10;0.10;;;;;;;;;;4985838;28;20552;-75
2022/12/06 05:50:59;;;;;;;0.00;0.00;;;;;;;;;;4989238;28;20038;-74
2022/12/06 05:53:26;;;;;;;0.00;0.00;;;;;;;;;;4992556;28;20071;-73
2022/12/06 05:55:52;;;;;;;0.00;0.00;;;;;;;;;;4980447;28;20559;-73
2022/12/06 05:58:19;;;;;;;0.10;0.10;;;;;;;;;;4983956;28;20410;-75
2022/12/06 06:00:46;;;;;;;0.00;0.00;;;;;;;;;;4989045;28;20113;-76
2022/12/06 06:03:13;;;;;;;0.00;0.00;;;;;;;;;;4988873;28;20022;-75
2022/12/06 06:05:44;;;;;;;0.00;0.00;;;;;;;;;;4985887;28;20576;-77
2022/12/06 06:08:11;;;;;;;0.00;0.00;;;;;;;;;;4985779;28;20504;-78
2022/12/06 06:10:37;;;;;;;0.00;0.00;;;;;;;;;;4988395;28;20039;-76
2022/12/06 06:13:03;;;;;;;0.00;0.00;;;;;;;;;;4988031;28;20027;-74
2022/12/06 06:15:30;;;;;;;0.00;0.00;;;;;;;;;;4985889;28;20034;-75
2022/12/06 06:17:56;;;;;;;0.00;0.00;;;;;;;;;;4986399;28;20625;-73
2022/12/06 06:20:22;;;;;;;0.00;0.00;;;;;;;;;;4986563;28;20031;-72
2022/12/06 06:22:49;;;;;;;0.10;0.10;;;;;;;;;;4985564;28;20026;-73
2022/12/06 06:25:15;;;;;;;0.10;0.10;;;;;;;;;;4988946;28;20042;-75
2022/12/06 06:27:41;;;;;;;0.03;0.03;;;;;;;;;;4984669;28;20468;-74
2022/12/06 06:30:09;;;;;;;0.00;0.00;;;;;;;;;;4986688;28;20085;-74
2022/12/06 06:32:35;;;;;;;0.00;0.00;;;;;;;;;;4998575;28;20092;-74
2022/12/06 06:35:02;;;;;;;0.00;0.00;;;;;;;;;;5008133;28;20030;-74
2022/12/06 06:37:28;;;;;;;0.00;0.00;;;;;;;;;;4991662;28;20036;-74
2022/12/06 06:39:55;;;;;;;0.10;0.10;;;;;;;;;;4982484;28;20388;-74
2022/12/06 06:42:21;;;;;;;0.00;0.00;;;;;;;;;;5002151;28;20033;-76
2022/12/06 06:44:48;;;;;;;0.00;0.00;;;;;;;;;;5006179;28;20131;-73
2022/12/06 06:47:14;;;;;;;0.00;0.00;;;;;;;;;;4991400;28;20025;-74
2022/12/06 06:49:40;;;;;;;0.00;0.00;;;;;;;;;;5008302;28;20057;-76
2022/12/06 06:52:07;;;;;;;0.00;0.00;;;;;;;;;;4985923;28;20026;-76
2022/12/06 06:54:33;;;;;;;0.10;0.10;;;;;;;;;;4991439;28;20034;-75
2022/12/06 06:57:01;;;;;;;0.00;0.00;;;;;;;;;;5009762;28;20433;-74
2022/12/06 06:59:28;;;;;;;0.00;0.00;;;;;;;;;;4991397;28;20599;-76
2022/12/06 07:01:54;;;;;;;0.00;0.00;;;;;;;;;;4994283;28;20026;-74
2022/12/06 07:04:21;;;;;;;0.00;0.00;;;;;;;;;;5008261;28;20034;-75
2022/12/06 07:06:47;;;;;;;0.00;0.00;;;;;;;;;;5010681;28;20053;-74
2022/12/06 07:09:14;;;;;;;0.00;0.00;;;;;;;;;;4990185;28;20061;-74
2022/12/06 07:11:40;;;;;;;0.00;0.00;;;;;;;;;;5004331;28;20112;-75
2022/12/06 07:14:06;;;;;;;0.00;0.00;;;;;;;;;;4990095;28;20056;-74
2022/12/06 07:16:33;;;;;;;0.00;0.00;;;;;;;;;;5007293;28;20469;-70
2022/12/06 07:18:59;;;;;;;0.00;0.00;;;;;;;;;;4991674;28;20029;-73
2022/12/06 07:21:25;;;;;;;0.00;0.00;;;;;;;;;;4992610;28;20129;-74
2022/12/06 07:23:52;;;;;;;0.00;0.00;;;;;;;;;;4990666;28;20030;-74
2022/12/06 07:26:19;;;;;;;0.00;0.00;;;;;;;;;;4991835;28;20038;-74
2022/12/06 07:28:46;;;;;;;0.00;0.00;;;;;;;;;;5004720;28;20034;-73
2022/12/06 07:31:17;;;;;;;0.00;0.00;;;;;;;;;;5006596;28;20074;-74
2022/12/06 07:33:44;;;;;;;0.00;0.00;;;;;;;;;;5006409;28;20060;-75
2022/12/06 07:36:11;;;;;;;0.00;0.00;;;;;;;;;;4993616;28;20061;-73
2022/12/06 07:38:38;;;;;;;0.00;0.00;;;;;;;;;;5010453;28;20026;-73
2022/12/06 07:46:39;;;;;;;0.00;0.00;;;;;;;;;;5003797;28;20122;-73
2022/12/06 07:49:05;;;;;;;0.00;0.00;;;;;;;;;;4991775;28;20609;-75
2022/12/06 07:51:32;;;;;;;0.00;0.00;;;;;;;;;;5006311;28;20037;-75
2022/12/06 07:53:58;;;;;;;0.00;0.00;;;;;;;;;;5005032;28;20042;-75
2022/12/06 07:56:25;;;;;;;0.00;0.00;;;;;;;;;;4992005;28;20125;-75
2022/12/06 07:58:51;;;;;;;0.00;0.00;;;;;;;;;;5014057;28;20549;-74
2022/12/06 08:01:18;;;;;;;0.00;0.00;;;;;;;;;;4984784;28;20436;-74
2022/12/06 08:03:44;;;;;;;0.00;0.00;;;;;;;;;;5005065;28;20034;-74
2022/12/06 08:06:10;;;;;;;0.00;0.00;;;;;;;;;;5002523;28;20476;-74
2022/12/06 08:08:37;;;;;;;0.00;0.00;;;;;;;;;;5005318;28;20025;-74
2022/12/06 08:11:05;;;;;;;0.00;0.00;;;;;;;;;;5006247;28;20029;-73
2022/12/06 08:13:34;;;;;;;0.00;0.00;;;;;;;;;;4989007;28;20046;-73
2022/12/06 08:16:04;;;;;;;0.00;0.00;;;;;;;;;;5002871;28;20064;-74
2022/12/06 08:18:30;;;;;;;0.00;0.00;;;;;;;;;;5007192;28;20029;-75
2022/12/06 08:20:58;;;;;;;0.00;0.00;;;;;;;;;;4991810;28;20032;-74
2022/12/06 08:23:24;;;;;;;0.00;0.00;;;;;;;;;;5007699;28;20176;-76
2022/12/06 08:26:00;;;;;;;0.00;0.00;;;;;;;;;;5007591;28;20030;-76
2022/12/06 08:28:28;;;;;;;0.00;0.00;;;;;;;;;;5005089;28;20065;-77
2022/12/06 08:30:54;;;;;;;0.03;0.03;;;;;;;;;;4986341;28;20033;-75
2022/12/06 08:33:21;;;;;;;0.00;0.00;;;;;;;;;;4986524;28;20449;-76
2022/12/06 08:35:47;;;;;;;0.00;0.00;;;;;;;;;;4989807;28;20567;-75
2022/12/06 08:38:14;;;;;;;0.03;0.03;;;;;;;;;;5006253;28;20033;-75
2022/12/06 08:40:40;;;;;;;0.00;0.00;;;;;;;;;;5005558;28;20114;-72
2022/12/06 08:43:07;;;;;;;0.00;0.00;;;;;;;;;;5005402;28;20027;-74
2022/12/06 08:45:33;;;;;;;0.00;0.00;;;;;;;;;;4987377;28;20528;-74
2022/12/06 08:48:01;;;;;;;0.00;0.00;;;;;;;;;;5004309;28;20096;-73
2022/12/06 08:50:27;;;;;;;0.00;0.00;;;;;;;;;;4984289;28;20479;-74
2022/12/06 08:52:53;;;;;;;0.03;0.03;;;;;;;;;;4983876;28;20041;-73
2022/12/06 08:55:20;;;;;;;0.00;0.00;;;;;;;;;;4983578;28;20045;-73
2022/12/06 08:57:46;;;;;;;0.00;0.00;;;;;;;;;;4981707;28;20031;-72
2022/12/06 09:00:13;;;;;;;0.93;0.10;;;;;;;;;;5005006;28;20096;-73
2022/12/06 09:02:40;;;;;;;0.03;0.03;;;;;;;;;;5005595;28;20460;-74
2022/12/06 09:05:06;;;;;;;0.00;0.00;;;;;;;;;;5004195;28;20072;-74
2022/12/06 09:07:32;;;;;;;0.00;0.00;;;;;;;;;;4980604;28;20661;-73
2022/12/06 09:09:59;;;;;;;0.00;0.00;;;;;;;;;;5003765;28;20029;-74
2022/12/06 09:12:25;;;;;;;0.00;0.00;;;;;;;;;;4990593;28;20034;-75
2022/12/06 09:14:51;;;;;;;0.00;0.00;;;;;;;;;;5001383;28;20404;-72
2022/12/06 09:17:18;;;;;;;0.00;0.00;;;;;;;;;;4993898;28;21114;-75
2022/12/06 09:19:44;;;;;;;0.10;0.10;;;;;;;;;;5003260;28;20034;-74
2022/12/06 09:22:10;;;;;;;0.00;0.00;;;;;;;;;;4987499;28;20029;-74
2022/12/06 09:24:37;;;;;;;0.00;0.00;;;;;;;;;;4990491;28;20027;-74
2022/12/06 09:27:03;;;;;;;0.00;0.00;;;;;;;;;;4989697;28;20030;-74
2022/12/06 09:29:29;;;;;;;0.00;0.00;;;;;;;;;;5005012;28;20384;-73
2022/12/06 09:31:56;;;;;;;0.00;0.00;;;;;;;;;;5007014;28;20399;-72
2022/12/06 09:34:22;;;;;;;0.00;0.00;;;;;;;;;;5006698;28;20068;-76
2022/12/06 09:36:51;;;;;;;0.00;0.00;;;;;;;;;;4990625;28;21021;-76
2022/12/06 09:39:20;;;;;;;0.00;0.00;;;;;;;;;;5010886;28;20049;-76
2022/12/06 09:42:05;;;;;;;0.10;0.10;;;;;;;;;;5004206;28;20113;-78
2022/12/06 09:44:41;;;;;;;0.00;0.00;;;;;;;;;;4989260;28;20092;-75
2022/12/06 09:47:16;;;;;;;0.00;0.00;;;;;;;;;;5002848;28;20030;-75
2022/12/06 09:49:43;;;;;;;0.00;0.00;;;;;;;;;;5010308;28;20424;-76
2022/12/06 09:52:15;;;;;;;0.07;0.07;;;;;;;;;;4991833;28;20080;-72
2022/12/06 09:54:52;;;;;;;0.00;0.00;;;;;;;;;;5007456;28;20450;-79
2022/12/06 09:57:18;;;;;;;0.00;0.00;;;;;;;;;;5006516;28;20041;-76
2022/12/06 09:59:48;;;;;;;0.10;0.10;;;;;;;;;;4991043;28;20543;-77
2022/12/06 10:02:32;;;;;;;0.00;0.00;;;;;;;;;;5006192;28;20034;-77
2022/12/06 10:05:22;;;;;;;0.10;0.10;;;;;;;;;;5005691;28;20148;-77
2022/12/06 10:08:13;;;;;;;0.10;0.10;;;;;;;;;;5008404;28;20125;-79
2022/12/06 10:10:53;;;;;;;0.03;0.03;;;;;;;;;;5011142;28;20034;-76
2022/12/06 10:13:19;;;;;;;0.00;0.00;;;;;;;;;;4994141;28;20060;-77
2022/12/06 10:15:45;;;;;;;0.00;0.00;;;;;;;;;;5009684;28;20100;-77
2022/12/06 10:18:24;;;;;;;0.07;0.07;;;;;;;;;;5007588;28;20060;-81
2022/12/06 10:21:05;;;;;;;0.00;0.00;;;;;;;;;;4993440;28;20022;-79
2022/12/06 10:23:38;;;;;;;0.00;0.00;;;;;;;;;;5009297;28;20580;-81
2022/12/06 10:26:18;;;;;;;0.00;0.00;;;;;;;;;;5006125;28;20029;-79
2022/12/06 10:28:50;;;;;;;0.00;0.00;;;;;;;;;;5012526;28;20029;-81
2022/12/06 10:31:35;;;;;;;0.00;0.00;;;;;;;;;;4982190;28;20729;-78
2022/12/06 10:34:11;;;;;;;0.00;0.00;;;;;;;;;;4988342;28;20066;-77
2022/12/06 10:36:41;;;;;;;0.00;0.00;;;;;;;;;;5010772;28;20029;-80
2022/12/06 10:39:14;;;;;;;0.00;0.00;;;;;;;;;;4996176;28;20029;-75
2022/12/06 10:41:49;;;;;;;0.00;0.00;;;;;;;;;;5007649;28;20041;-71
2022/12/06 10:44:29;;;;;;;0.00;0.00;;;;;;;;;;4993198;28;20018;-70
2022/12/06 10:47:03;;;;;;;0.00;0.00;;;;;;;;;;4995691;28;20092;-70
2022/12/06 10:49:29;;;;;;;0.00;0.00;;;;;;;;;;5009888;28;20022;-71
2022/12/06 10:52:00;;;;;;;0.00;0.00;;;;;;;;;;4991345;28;20030;-69
2022/12/06 10:54:52;;;;;;;0.00;0.00;;;;;;;;;;5004780;28;20038;-72
2022/12/06 10:57:23;;;;;;;0.00;0.00;;;;;;;;;;4984723;28;20161;-72
2022/12/06 11:00:12;;;;;;;0.00;0.00;;;;;;;;;;5010323;28;20114;-71
2022/12/06 11:02:41;;;;;;;0.00;0.00;;;;;;;;;;5001670;28;20121;-71
2022/12/06 11:05:30;;;;;;;0.00;0.00;;;;;;;;;;4983156;28;20022;-72
2022/12/06 11:08:02;;;;;;;0.00;0.00;;;;;;;;;;4982165;28;20038;-72
2022/12/06 11:10:31;;;;;;;0.00;0.00;;;;;;;;;;5007456;28;20034;-72
2022/12/06 11:13:01;;;;;;;0.00;0.00;;;;;;;;;;4990024;28;20034;-75
2022/12/06 11:15:32;;;;;;;0.00;0.00;;;;;;;;;;4987456;28;20035;-72
2022/12/06 11:18:03;;;;;;;0.00;0.00;;;;;;;;;;5005689;28;20622;-73
2022/12/06 11:20:32;;;;;;;0.07;0.07;;;;;;;;;;4985653;28;20028;-77
2022/12/06 11:23:17;;;;;;;0.00;0.00;;;;;;;;;;5006894;28;20022;-71
2022/12/06 11:25:50;;;;;;;0.00;0.00;;;;;;;;;;4987288;28;20841;-72
2022/12/06 11:28:37;;;;;;;0.00;0.00;;;;;;;;;;5009396;28;20071;-72
2022/12/06 11:31:08;;;;;;;0.00;0.00;;;;;;;;;;5007804;28;20153;-71
2022/12/06 11:33:35;;;;;;;0.00;0.00;;;;;;;;;;4980161;28;20591;-72
2022/12/06 11:36:03;;;;;;;0.00;0.00;;;;;;;;;;4984370;28;20519;-73
2022/12/06 11:38:30;;;;;;;0.00;0.00;;;;;;;;;;4984501;28;20532;-70
2022/12/06 11:40:57;;;;;;;0.00;0.00;;;;;;;;;;4987854;28;20030;-71
2022/12/06 11:43:25;;;;;;;0.00;0.00;;;;;;;;;;4984416;28;20384;-71
2022/12/06 11:45:52;;;;;;;0.00;0.00;;;;;;;;;;4982626;28;20026;-73
2022/12/06 11:48:20;;;;;;;0.00;0.00;;;;;;;;;;4983992;28;20039;-74
2022/12/06 11:50:47;;;;;;;0.03;0.03;;;;;;;;;;4981445;28;20127;-74
2022/12/06 11:53:24;;;;;;;0.00;0.00;;;;;;;;;;4979990;28;20019;-74
2022/12/06 11:55:55;;;;;;;0.00;0.00;;;;;;;;;;4982585;28;20030;-74
2022/12/06 11:58:25;;;;;;;0.00;0.00;;;;;;;;;;4983153;28;20423;-73
2022/12/06 12:01:03;;;;;;;0.00;0.00;;;;;;;;;;4971737;28;20042;-74
2022/12/06 12:03:30;;;;;;;0.00;0.00;;;;;;;;;;4987421;28;20370;-72
2022/12/06 12:06:20;;;;;;;0.00;0.00;;;;;;;;;;4983607;28;20023;-72
2022/12/06 12:08:55;;;;;;;0.00;0.00;;;;;;;;;;4977563;28;20141;-74
2022/12/06 12:11:23;;;;;;;0.10;0.10;;;;;;;;;;4981427;28;20034;-73
2022/12/06 12:13:51;;;;;;;0.00;0.00;;;;;;;;;;4985435;28;20046;-73
2022/12/06 12:16:23;;;;;;;0.10;0.10;;;;;;;;;;4987709;28;20034;-73
2022/12/06 12:18:50;;;;;;;0.00;0.00;;;;;;;;;;4982158;28;20034;-73
2022/12/06 12:21:17;;;;;;;0.00;0.00;;;;;;;;;;4989849;28;20035;-75
2022/12/06 12:23:45;;;;;;;0.00;0.00;;;;;;;;;;4992651;28;20060;-73
2022/12/06 12:26:13;;;;;;;0.00;0.00;;;;;;;;;;4989319;28;20468;-73
2022/12/06 12:28:40;;;;;;;0.00;0.00;;;;;;;;;;4983929;28;20034;-73
2022/12/06 12:31:23;;;;;;;0.10;0.10;;;;;;;;;;4986430;28;20040;-73
2022/12/06 12:34:09;;;;;;;0.00;0.00;;;;;;;;;;4982538;28;20113;-73
2022/12/06 12:36:36;;;;;;;0.03;0.03;;;;;;;;;;4986301;28;20034;-73
2022/12/06 12:39:02;;;;;;;0.10;0.10;;;;;;;;;;4987010;28;20033;-72
2022/12/06 12:41:29;;;;;;;0.00;0.00;;;;;;;;;;4989959;28;20065;-72
2022/12/06 12:43:59;;;;;;;0.00;0.00;;;;;;;;;;4990296;28;20058;-73
2022/12/06 12:46:27;;;;;;;0.00;0.00;;;;;;;;;;4982554;28;20050;-73
2022/12/06 12:48:54;;;;;;;0.00;0.00;;;;;;;;;;4984263;28;20086;-73
2022/12/06 12:51:27;;;;;;;0.03;0.03;;;;;;;;;;4994305;28;20021;-70
2022/12/06 12:53:55;;;;;;;0.00;0.00;;;;;;;;;;4985675;28;20034;-71
2022/12/06 12:56:22;;;;;;;0.00;0.00;;;;;;;;;;4981581;28;20432;-73
2022/12/06 12:58:55;;;;;;;0.00;0.00;;;;;;;;;;4973954;28;20026;-73
2022/12/06 13:01:36;;;;;;;0.00;0.00;;;;;;;;;;4977090;28;20033;-74
2022/12/06 13:04:21;;;;;;;0.00;0.00;;;;;;;;;;4986302;28;20030;-74
2022/12/06 13:07:05;;;;;;;0.00;0.00;;;;;;;;;;4989507;28;20015;-74
2022/12/06 13:09:37;;;;;;;0.00;0.00;;;;;;;;;;4979828;28;20069;-75
2022/12/06 13:12:10;;;;;;;0.00;0.00;;;;;;;;;;4992121;28;20034;-75
2022/12/06 13:14:50;;;;;;;0.00;0.00;;;;;;;;;;4996908;28;20018;-75
2022/12/06 13:17:17;;;;;;;0.07;0.07;;;;;;;;;;4997110;28;20030;-75
2022/12/06 13:19:45;;;;;;;0.00;0.00;;;;;;;;;;4990458;28;20033;-74
2022/12/06 13:22:25;;;;;;;0.00;0.00;;;;;;;;;;4981505;28;20289;-74
2022/12/06 13:24:59;;;;;;;0.00;0.00;;;;;;;;;;4989732;28;20030;-74
2022/12/06 13:27:26;;;;;;;0.00;0.00;;;;;;;;;;4994491;28;20026;-74
2022/12/06 13:30:03;;;;;;;0.00;0.00;;;;;;;;;;5001300;28;20108;-73
2022/12/06 13:32:32;;;;;;;0.00;0.00;;;;;;;;;;4993976;28;20046;-74
2022/12/06 13:35:18;;;;;;;0.00;0.00;;;;;;;;;;4985950;28;20396;-73
2022/12/06 13:37:56;;;;;;;0.00;0.00;;;;;;;;;;4989976;28;20125;-74
2022/12/06 13:40:31;;;;;;;0.00;0.00;;;;;;;;;;4999539;28;20026;-73
2022/12/06 13:42:58;;;;;;;0.07;0.07;;;;;;;;;;4995969;28;20117;-73
2022/12/06 13:45:44;;;;;;;0.00;0.00;;;;;;;;;;5000055;28;20064;-73
2022/12/06 13:48:25;;;;;;;0.00;0.00;;;;;;;;;;4987556;28;20444;-72
2022/12/06 13:51:00;;;;;;;0.00;0.00;;;;;;;;;;4985675;28;20042;-74
2022/12/06 13:53:27;;;;;;;0.00;0.00;;;;;;;;;;5005201;28;20045;-73
2022/12/06 13:56:00;;;;;;;0.00;0.00;;;;;;;;;;4998286;28;20030;-73
2022/12/06 13:58:27;;;;;;;0.10;0.10;;;;;;;;;;4991391;28;20034;-73
2022/12/06 14:00:54;;;;;;;0.00;0.00;;;;;;;;;;4991514;28;20035;-73
2022/12/06 14:03:22;;;;;;;0.07;0.07;;;;;;;;;;4989750;28;20023;-74
2022/12/06 14:06:07;;;;;;;0.00;0.00;;;;;;;;;;4996599;28;20018;-73
2022/12/06 14:08:41;;;;;;;0.00;0.00;;;;;;;;;;4988287;28;20022;-74
2022/12/06 14:11:20;;;;;;;0.00;0.00;;;;;;;;;;4990587;28;20033;-73
2022/12/06 14:13:58;;;;;;;0.00;0.00;;;;;;;;;;4988262;28;20034;-73
2022/12/06 14:16:28;;;;;;;0.00;0.00;;;;;;;;;;4984031;28;20499;-72
2022/12/06 14:18:54;;;;;;;0.00;0.00;;;;;;;;;;4983363;28;20030;-74
2022/12/06 14:21:24;;;;;;;0.00;0.00;;;;;;;;;;4993030;28;20031;-73
2022/12/06 14:23:50;;;;;;;0.00;0.00;;;;;;;;;;4992985;28;21958;-74
2022/12/06 14:26:21;;;;;;;0.00;0.00;;;;;;;;;;4987817;28;20027;-72
2022/12/06 14:28:48;;;;;;;0.00;0.00;;;;;;;;;;4995124;28;20045;-73
2022/12/06 14:31:50;;;;;;;0.10;0.10;;;;;;;;;;4993952;28;20026;-73
2022/12/06 14:34:27;;;;;;;0.10;0.10;;;;;;;;;;4922161;29;20086;-73
2022/12/06 14:36:53;;;;;;;0.10;0.10;;;;;;;;;;4965218;28;20043;-73
2022/12/06 14:39:23;;;;;;;0.00;0.00;;;;;;;;;;4970816;28;20041;-74
2022/12/06 14:44:47;;;;;;;0.00;0.00;;;;;;;;;;4974849;28;20405;-74
2022/12/06 14:47:15;;;;;;;0.00;0.00;;;;;;;;;;4972418;28;20027;-73
2022/12/06 14:52:27;;;;;;;0.00;0.00;;;;;;;;;;4968678;28;20093;-75
2022/12/06 14:55:12;;;;;;;0.00;0.00;;;;;;;;;;4970509;28;20034;-73
2022/12/06 14:57:44;;;;;;;0.03;0.03;;;;;;;;;;4956243;28;20031;-73
2022/12/06 15:00:18;;;;;;;0.03;0.03;;;;;;;;;;4967124;28;20053;-73
2022/12/06 15:03:03;;;;;;;0.00;0.00;;;;;;;;;;4970402;28;20079;-72
2022/12/06 15:05:33;;;;;;;0.00;0.00;;;;;;;;;;4972097;28;20097;-73
2022/12/06 15:08:17;;;;;;;0.10;0.10;;;;;;;;;;4963138;28;20075;-73
2022/12/06 15:10:53;;;;;;;0.07;0.07;;;;;;;;;;4961674;28;20100;-73
2022/12/06 15:13:19;;;;;;;0.00;0.00;;;;;;;;;;4968409;28;20035;-74
2022/12/06 15:15:46;;;;;;;0.00;0.00;;;;;;;;;;4970001;28;20125;-73
2022/12/06 15:18:39;;;;;;;0.07;0.07;;;;;;;;;;4965602;28;20122;-74
2022/12/06 15:21:15;;;;;;;0.00;0.00;;;;;;;;;;4970281;28;20407;-75
2022/12/06 15:23:48;;;;;;;0.00;0.00;;;;;;;;;;4968502;28;20031;-74
2022/12/06 15:26:15;;;;;;;0.00;0.00;;;;;;;;;;4969011;28;20047;-74
2022/12/06 15:28:41;;;;;;;0.00;0.00;;;;;;;;;;4962181;28;20039;-75